Bluff Estates, South Carolina
Current Conditions -  °F | °C
As of 9:53 PM on Tuesday 21 Oct 2014 (Local Time) from KCUB Reporting Station
Clear Clear  
Wind Chill: 19°   Ceiling: Unl
Heat Index: 19°   Visibility: 10mi
Dew Point:   Wind: 6mph
Humidity: 49%   Direction: NA
Pressure: 29.95"   Gusts: NA
Location:  33.9488°N, 80.9462°W
Report Text: KCUB 220153Z AUTO VRB05KT 10SM CLR 19/08 A2995 RMK AO2 SLP140 T01940083 $
Loading
Personal Weather Stations






























Interactive Weather Map
Tropical Storm Tracking
New forecast layout! Learn more

10-Day Weather Forecast

Advertisements
Track Severe Weather on mobile